sensor_id;sensor_type;location;lat;lon;timestamp;temperature;humidity
65036;DHT22;51603;49.300;8.880;2022-09-02T00:01:48;15.90;99.90
65036;DHT22;51603;49.300;8.880;2022-09-02T00:04:17;15.80;99.90
65036;DHT22;51603;49.300;8.880;2022-09-02T00:06:44;15.80;99.90
65036;DHT22;51603;49.300;8.880;2022-09-02T00:09:12;15.70;99.90
65036;DHT22;51603;49.300;8.880;2022-09-02T00:11:40;15.70;99.90
65036;DHT22;51603;49.300;8.880;2022-09-02T00:14:09;15.70;99.90
65036;DHT22;51603;49.300;8.880;2022-09-02T00:16:35;15.60;99.90
65036;DHT22;51603;49.300;8.880;2022-09-02T00:19:02;15.60;99.90
65036;DHT22;51603;49.300;8.880;2022-09-02T00:21:29;15.60;99.90
65036;DHT22;51603;49.300;8.880;2022-09-02T00:23:55;15.60;99.90
65036;DHT22;51603;49.300;8.880;2022-09-02T00:26:21;15.60;99.90
65036;DHT22;51603;49.300;8.880;2022-09-02T00:28:47;15.60;99.90
65036;DHT22;51603;49.300;8.880;2022-09-02T00:31:13;15.50;99.90
65036;DHT22;51603;49.300;8.880;2022-09-02T00:33:39;15.50;99.90
65036;DHT22;51603;49.300;8.880;2022-09-02T00:36:06;15.50;99.90
65036;DHT22;51603;49.300;8.880;2022-09-02T00:38:32;15.50;99.90
65036;DHT22;51603;49.300;8.880;2022-09-02T00:41:00;15.50;99.90
65036;DHT22;51603;49.300;8.880;2022-09-02T00:46:16;15.40;99.90
65036;DHT22;51603;49.300;8.880;2022-09-02T00:48:46;15.40;99.90
65036;DHT22;51603;49.300;8.880;2022-09-02T00:51:13;15.40;99.90
65036;DHT22;51603;49.300;8.880;2022-09-02T00:53:41;15.30;99.90
65036;DHT22;51603;49.300;8.880;2022-09-02T00:56:13;15.30;99.90
65036;DHT22;51603;49.300;8.880;2022-09-02T00:58:41;15.30;99.90
65036;DHT22;51603;49.300;8.880;2022-09-02T01:01:23;15.30;99.90
65036;DHT22;51603;49.300;8.880;2022-09-02T01:03:49;15.30;99.90
65036;DHT22;51603;49.300;8.880;2022-09-02T01:06:19;15.20;99.90
65036;DHT22;51603;49.300;8.880;2022-09-02T01:08:50;15.20;99.90
65036;DHT22;51603;49.300;8.880;2022-09-02T01:11:19;15.20;99.90
65036;DHT22;51603;49.300;8.880;2022-09-02T01:13:45;15.10;99.90
65036;DHT22;51603;49.300;8.880;2022-09-02T01:16:14;15.10;99.90
65036;DHT22;51603;49.300;8.880;2022-09-02T01:18:43;15.10;99.90
65036;DHT22;51603;49.300;8.880;2022-09-02T01:21:09;15.10;99.90
65036;DHT22;51603;49.300;8.880;2022-09-02T01:23:36;15.10;99.90
65036;DHT22;51603;49.300;8.880;2022-09-02T01:26:02;15.10;99.90
65036;DHT22;51603;49.300;8.880;2022-09-02T01:28:29;15.10;99.90
65036;DHT22;51603;49.300;8.880;2022-09-02T01:30:57;15.10;99.90
65036;DHT22;51603;49.300;8.880;2022-09-02T01:33:24;15.00;99.90
65036;DHT22;51603;49.300;8.880;2022-09-02T01:35:50;15.00;99.90
65036;DHT22;51603;49.300;8.880;2022-09-02T01:38:16;15.00;99.90
65036;DHT22;51603;49.300;8.880;2022-09-02T01:40:42;15.00;99.90
65036;DHT22;51603;49.300;8.880;2022-09-02T01:43:12;14.90;99.90
65036;DHT22;51603;49.300;8.880;2022-09-02T01:45:39;14.90;99.90
65036;DHT22;51603;49.300;8.880;2022-09-02T01:48:06;14.90;99.90
65036;DHT22;51603;49.300;8.880;2022-09-02T01:50:32;14.90;99.90
65036;DHT22;51603;49.300;8.880;2022-09-02T01:52:59;14.90;99.90
65036;DHT22;51603;49.300;8.880;2022-09-02T01:55:26;14.80;99.90
65036;DHT22;51603;49.300;8.880;2022-09-02T01:57:51;14.80;99.90
65036;DHT22;51603;49.300;8.880;2022-09-02T02:00:17;14.80;99.90
65036;DHT22;51603;49.300;8.880;2022-09-02T02:02:43;14.80;99.90
65036;DHT22;51603;49.300;8.880;2022-09-02T02:05:08;14.80;99.90
65036;DHT22;51603;49.300;8.880;2022-09-02T02:07:34;14.70;99.90
65036;DHT22;51603;49.300;8.880;2022-09-02T02:10:00;14.70;99.90
65036;DHT22;51603;49.300;8.880;2022-09-02T02:12:25;14.70;99.90
65036;DHT22;51603;49.300;8.880;2022-09-02T02:14:51;14.70;99.90
65036;DHT22;51603;49.300;8.880;2022-09-02T02:17:16;14.70;99.90
65036;DHT22;51603;49.300;8.880;2022-09-02T02:19:42;14.70;99.90
65036;DHT22;51603;49.300;8.880;2022-09-02T02:22:08;14.70;99.90
65036;DHT22;51603;49.300;8.880;2022-09-02T02:24:34;14.70;99.90
65036;DHT22;51603;49.300;8.880;2022-09-02T02:27:00;14.70;99.90
65036;DHT22;51603;49.300;8.880;2022-09-02T02:29:25;14.60;99.90
65036;DHT22;51603;49.300;8.880;2022-09-02T02:31:51;14.70;99.90
65036;DHT22;51603;49.300;8.880;2022-09-02T02:34:17;14.60;99.90
65036;DHT22;51603;49.300;8.880;2022-09-02T02:36:43;14.60;99.90
65036;DHT22;51603;49.300;8.880;2022-09-02T02:39:09;14.60;99.90
65036;DHT22;51603;49.300;8.880;2022-09-02T02:41:35;14.50;99.90
65036;DHT22;51603;49.300;8.880;2022-09-02T02:44:02;14.50;99.90
65036;DHT22;51603;49.300;8.880;2022-09-02T02:46:27;14.50;99.90
65036;DHT22;51603;49.300;8.880;2022-09-02T02:48:55;14.50;99.90
65036;DHT22;51603;49.300;8.880;2022-09-02T02:51:21;14.50;99.90
65036;DHT22;51603;49.300;8.880;2022-09-02T02:53:46;14.50;99.90
65036;DHT22;51603;49.300;8.880;2022-09-02T02:56:12;14.50;99.90
65036;DHT22;51603;49.300;8.880;2022-09-02T02:58:37;14.40;99.90
65036;DHT22;51603;49.300;8.880;2022-09-02T03:01:03;14.40;99.90
65036;DHT22;51603;49.300;8.880;2022-09-02T03:03:29;14.40;99.90
65036;DHT22;51603;49.300;8.880;2022-09-02T03:05:55;14.40;99.90
65036;DHT22;51603;49.300;8.880;2022-09-02T03:08:21;14.30;99.90
65036;DHT22;51603;49.300;8.880;2022-09-02T03:10:50;14.30;99.90
65036;DHT22;51603;49.300;8.880;2022-09-02T03:13:17;14.30;99.90
65036;DHT22;51603;49.300;8.880;2022-09-02T03:15:43;14.30;99.90
65036;DHT22;51603;49.300;8.880;2022-09-02T03:18:08;14.30;99.90
65036;DHT22;51603;49.300;8.880;2022-09-02T03:20:34;14.30;99.90
65036;DHT22;51603;49.300;8.880;2022-09-02T03:23:00;14.30;99.90
65036;DHT22;51603;49.300;8.880;2022-09-02T03:25:28;14.30;99.90
65036;DHT22;51603;49.300;8.880;2022-09-02T03:27:54;14.30;99.90
65036;DHT22;51603;49.300;8.880;2022-09-02T03:30:23;14.20;99.90
65036;DHT22;51603;49.300;8.880;2022-09-02T03:32:53;14.20;99.90
65036;DHT22;51603;49.300;8.880;2022-09-02T03:35:20;14.20;99.90
65036;DHT22;51603;49.300;8.880;2022-09-02T03:37:46;14.20;99.90
65036;DHT22;51603;49.300;8.880;2022-09-02T03:40:15;14.20;99.90
65036;DHT22;51603;49.300;8.880;2022-09-02T03:42:41;14.10;99.90
65036;DHT22;51603;49.300;8.880;2022-09-02T03:45:08;14.10;99.90
65036;DHT22;51603;49.300;8.880;2022-09-02T03:47:35;14.10;99.90
65036;DHT22;51603;49.300;8.880;2022-09-02T03:50:01;14.10;99.90
65036;DHT22;51603;49.300;8.880;2022-09-02T03:52:28;14.10;99.90
65036;DHT22;51603;49.300;8.880;2022-09-02T03:54:54;14.10;99.90
65036;DHT22;51603;49.300;8.880;2022-09-02T03:57:20;14.10;99.90
65036;DHT22;51603;49.300;8.880;2022-09-02T03:59:47;14.00;99.90
65036;DHT22;51603;49.300;8.880;2022-09-02T04:02:13;14.00;99.90
65036;DHT22;51603;49.300;8.880;2022-09-02T04:04:39;14.00;99.90
65036;DHT22;51603;49.300;8.880;2022-09-02T04:07:04;14.00;99.90
65036;DHT22;51603;49.300;8.880;2022-09-02T04:09:30;13.90;99.90
65036;DHT22;51603;49.300;8.880;2022-09-02T04:11:55;13.90;99.90
65036;DHT22;51603;49.300;8.880;2022-09-02T04:14:21;13.90;99.90
65036;DHT22;51603;49.300;8.880;2022-09-02T04:16:46;13.90;99.90
65036;DHT22;51603;49.300;8.880;2022-09-02T04:19:12;13.90;99.90
65036;DHT22;51603;49.300;8.880;2022-09-02T04:21:39;13.90;99.90
65036;DHT22;51603;49.300;8.880;2022-09-02T04:24:07;13.80;99.90
65036;DHT22;51603;49.300;8.880;2022-09-02T04:26:33;13.80;99.90
65036;DHT22;51603;49.300;8.880;2022-09-02T04:28:59;13.80;99.90
65036;DHT22;51603;49.300;8.880;2022-09-02T04:31:25;13.80;99.90
65036;DHT22;51603;49.300;8.880;2022-09-02T04:33:53;13.80;99.90
65036;DHT22;51603;49.300;8.880;2022-09-02T04:36:19;13.70;99.90
65036;DHT22;51603;49.300;8.880;2022-09-02T04:38:45;13.80;99.90
65036;DHT22;51603;49.300;8.880;2022-09-02T04:41:22;13.80;99.90
65036;DHT22;51603;49.300;8.880;2022-09-02T04:43:49;13.80;99.90
65036;DHT22;51603;49.300;8.880;2022-09-02T04:46:16;13.80;99.90
65036;DHT22;51603;49.300;8.880;2022-09-02T04:48:42;13.70;99.90
65036;DHT22;51603;49.300;8.880;2022-09-02T04:51:11;13.70;99.90
65036;DHT22;51603;49.300;8.880;2022-09-02T04:53:38;13.70;99.90
65036;DHT22;51603;49.300;8.880;2022-09-02T04:56:05;13.70;99.90
65036;DHT22;51603;49.300;8.880;2022-09-02T04:58:31;13.70;99.90
65036;DHT22;51603;49.300;8.880;2022-09-02T05:00:57;13.70;99.90
65036;DHT22;51603;49.300;8.880;2022-09-02T05:03:23;13.70;99.90
65036;DHT22;51603;49.300;8.880;2022-09-02T05:05:58;13.70;99.90
65036;DHT22;51603;49.300;8.880;2022-09-02T05:08:24;13.60;99.90
65036;DHT22;51603;49.300;8.880;2022-09-02T05:10:49;13.60;99.90
65036;DHT22;51603;49.300;8.880;2022-09-02T05:13:16;13.70;99.90
65036;DHT22;51603;49.300;8.880;2022-09-02T05:15:41;13.70;99.90
65036;DHT22;51603;49.300;8.880;2022-09-02T05:18:09;13.70;99.90
65036;DHT22;51603;49.300;8.880;2022-09-02T05:20:39;13.70;99.90
65036;DHT22;51603;49.300;8.880;2022-09-02T05:23:08;13.70;99.90
65036;DHT22;51603;49.300;8.880;2022-09-02T05:25:35;13.70;99.90
65036;DHT22;51603;49.300;8.880;2022-09-02T05:28:02;13.70;99.90
65036;DHT22;51603;49.300;8.880;2022-09-02T05:30:27;13.70;99.90
65036;DHT22;51603;49.300;8.880;2022-09-02T05:32:53;13.70;99.90
65036;DHT22;51603;49.300;8.880;2022-09-02T05:35:18;13.70;99.90
65036;DHT22;51603;49.300;8.880;2022-09-02T05:37:44;13.70;99.90
65036;DHT22;51603;49.300;8.880;2022-09-02T05:40:09;13.70;99.90
65036;DHT22;51603;49.300;8.880;2022-09-02T05:42:37;13.80;99.90
65036;DHT22;51603;49.300;8.880;2022-09-02T05:45:03;13.80;99.90
65036;DHT22;51603;49.300;8.880;2022-09-02T05:47:29;13.80;99.90
65036;DHT22;51603;49.300;8.880;2022-09-02T05:49:54;13.80;99.90
65036;DHT22;51603;49.300;8.880;2022-09-02T05:52:20;13.90;99.90
65036;DHT22;51603;49.300;8.880;2022-09-02T05:54:45;14.00;99.90
65036;DHT22;51603;49.300;8.880;2022-09-02T05:57:15;14.00;99.90
65036;DHT22;51603;49.300;8.880;2022-09-02T05:59:42;14.10;99.90
65036;DHT22;51603;49.300;8.880;2022-09-02T06:02:10;14.10;99.90
65036;DHT22;51603;49.300;8.880;2022-09-02T06:04:38;14.20;99.90
65036;DHT22;51603;49.300;8.880;2022-09-02T06:07:04;14.30;99.90
65036;DHT22;51603;49.300;8.880;2022-09-02T06:09:30;14.40;99.90
65036;DHT22;51603;49.300;8.880;2022-09-02T06:11:55;14.50;99.90
65036;DHT22;51603;49.300;8.880;2022-09-02T06:14:23;14.50;99.90
65036;DHT22;51603;49.300;8.880;2022-09-02T06:16:50;14.60;99.90
65036;DHT22;51603;49.300;8.880;2022-09-02T06:19:17;14.70;99.90
65036;DHT22;51603;49.300;8.880;2022-09-02T06:21:43;14.70;99.90
65036;DHT22;51603;49.300;8.880;2022-09-02T06:24:10;14.80;99.90
65036;DHT22;51603;49.300;8.880;2022-09-02T06:26:37;15.00;99.90
65036;DHT22;51603;49.300;8.880;2022-09-02T06:29:04;15.00;99.90
65036;DHT22;51603;49.300;8.880;2022-09-02T06:31:30;15.10;99.90
65036;DHT22;51603;49.300;8.880;2022-09-02T06:33:58;15.20;99.90
65036;DHT22;51603;49.300;8.880;2022-09-02T06:36:26;15.30;99.90
65036;DHT22;51603;49.300;8.880;2022-09-02T06:38:53;15.40;99.90
65036;DHT22;51603;49.300;8.880;2022-09-02T06:41:23;15.60;99.90
65036;DHT22;51603;49.300;8.880;2022-09-02T06:43:51;15.60;99.90
65036;DHT22;51603;49.300;8.880;2022-09-02T06:46:25;15.70;99.90
65036;DHT22;51603;49.300;8.880;2022-09-02T06:48:51;15.80;99.90
65036;DHT22;51603;49.300;8.880;2022-09-02T06:51:35;15.90;99.90
65036;DHT22;51603;49.300;8.880;2022-09-02T06:54:01;16.00;99.90
65036;DHT22;51603;49.300;8.880;2022-09-02T06:56:27;16.20;99.90
65036;DHT22;51603;49.300;8.880;2022-09-02T06:58:54;16.30;99.90
65036;DHT22;51603;49.300;8.880;2022-09-02T07:01:26;16.40;99.90
65036;DHT22;51603;49.300;8.880;2022-09-02T07:03:52;16.40;99.90
65036;DHT22;51603;49.300;8.880;2022-09-02T07:06:40;16.50;99.90
65036;DHT22;51603;49.300;8.880;2022-09-02T07:09:07;16.70;99.90
65036;DHT22;51603;49.300;8.880;2022-09-02T07:11:33;17.00;99.90
65036;DHT22;51603;49.300;8.880;2022-09-02T07:14:00;17.10;99.90
65036;DHT22;51603;49.300;8.880;2022-09-02T07:16:35;17.20;99.90
65036;DHT22;51603;49.300;8.880;2022-09-02T07:19:02;17.30;99.90
65036;DHT22;51603;49.300;8.880;2022-09-02T07:21:29;17.40;99.90
65036;DHT22;51603;49.300;8.880;2022-09-02T07:23:56;17.60;99.90
65036;DHT22;51603;49.300;8.880;2022-09-02T07:26:23;17.70;99.90
65036;DHT22;51603;49.300;8.880;2022-09-02T07:28:48;17.90;99.90
65036;DHT22;51603;49.300;8.880;2022-09-02T07:31:15;17.90;99.90
65036;DHT22;51603;49.300;8.880;2022-09-02T07:33:42;18.00;99.90
65036;DHT22;51603;49.300;8.880;2022-09-02T07:36:10;18.20;99.90
65036;DHT22;51603;49.300;8.880;2022-09-02T07:38:36;18.20;99.60
65036;DHT22;51603;49.300;8.880;2022-09-02T07:41:03;18.20;99.70
65036;DHT22;51603;49.300;8.880;2022-09-02T07:43:30;18.40;99.60
65036;DHT22;51603;49.300;8.880;2022-09-02T07:45:57;18.60;98.60
65036;DHT22;51603;49.300;8.880;2022-09-02T07:48:25;18.80;98.30
65036;DHT22;51603;49.300;8.880;2022-09-02T07:50:52;19.00;98.10
65036;DHT22;51603;49.300;8.880;2022-09-02T07:53:18;19.10;98.20
65036;DHT22;51603;49.300;8.880;2022-09-02T07:55:44;19.10;97.20
65036;DHT22;51603;49.300;8.880;2022-09-02T07:58:11;19.10;96.90
65036;DHT22;51603;49.300;8.880;2022-09-02T08:00:38;19.20;97.00
65036;DHT22;51603;49.300;8.880;2022-09-02T08:03:04;19.20;96.60
65036;DHT22;51603;49.300;8.880;2022-09-02T08:05:30;19.40;96.50
65036;DHT22;51603;49.300;8.880;2022-09-02T08:07:56;19.60;96.40
65036;DHT22;51603;49.300;8.880;2022-09-02T08:10:22;19.70;96.20
65036;DHT22;51603;49.300;8.880;2022-09-02T08:12:50;19.80;95.80
65036;DHT22;51603;49.300;8.880;2022-09-02T08:15:16;20.00;95.30
65036;DHT22;51603;49.300;8.880;2022-09-02T08:17:44;20.20;95.40
65036;DHT22;51603;49.300;8.880;2022-09-02T08:20:11;20.40;94.50
65036;DHT22;51603;49.300;8.880;2022-09-02T08:22:37;20.70;93.50
65036;DHT22;51603;49.300;8.880;2022-09-02T08:25:03;20.70;92.90
65036;DHT22;51603;49.300;8.880;2022-09-02T08:27:29;20.70;93.00
65036;DHT22;51603;49.300;8.880;2022-09-02T08:29:56;20.80;92.90
65036;DHT22;51603;49.300;8.880;2022-09-02T08:32:23;21.00;92.30
65036;DHT22;51603;49.300;8.880;2022-09-02T08:34:48;21.10;92.10
65036;DHT22;51603;49.300;8.880;2022-09-02T08:37:14;21.20;91.40
65036;DHT22;51603;49.300;8.880;2022-09-02T08:39:40;21.30;91.00
65036;DHT22;51603;49.300;8.880;2022-09-02T08:42:30;21.30;90.40
65036;DHT22;51603;49.300;8.880;2022-09-02T08:45:03;21.40;90.60
65036;DHT22;51603;49.300;8.880;2022-09-02T08:47:32;21.50;89.90
65036;DHT22;51603;49.300;8.880;2022-09-02T08:50:03;21.70;89.30
65036;DHT22;51603;49.300;8.880;2022-09-02T08:52:38;21.90;88.80
65036;DHT22;51603;49.300;8.880;2022-09-02T08:55:12;22.10;86.70
65036;DHT22;51603;49.300;8.880;2022-09-02T08:57:43;22.20;85.20
65036;DHT22;51603;49.300;8.880;2022-09-02T09:00:10;22.10;84.80
65036;DHT22;51603;49.300;8.880;2022-09-02T09:03:23;22.40;82.60
65036;DHT22;51603;49.300;8.880;2022-09-02T09:05:56;22.30;79.90
65036;DHT22;51603;49.300;8.880;2022-09-02T09:16:39;22.80;78.10
65036;DHT22;51603;49.300;8.880;2022-09-02T09:19:15;23.30;74.30
65036;DHT22;51603;49.300;8.880;2022-09-02T09:21:41;23.10;74.90
65036;DHT22;51603;49.300;8.880;2022-09-02T09:24:24;23.20;74.80
65036;DHT22;51603;49.300;8.880;2022-09-02T09:26:52;23.50;72.40
65036;DHT22;51603;49.300;8.880;2022-09-02T09:29:18;23.40;70.40
65036;DHT22;51603;49.300;8.880;2022-09-02T09:31:48;23.30;72.80
65036;DHT22;51603;49.300;8.880;2022-09-02T09:34:17;23.50;70.90
65036;DHT22;51603;49.300;8.880;2022-09-02T09:36:43;23.60;69.90
65036;DHT22;51603;49.300;8.880;2022-09-02T09:39:17;23.70;66.70
65036;DHT22;51603;49.300;8.880;2022-09-02T09:41:45;23.90;65.60
65036;DHT22;51603;49.300;8.880;2022-09-02T09:44:13;24.00;64.80
65036;DHT22;51603;49.300;8.880;2022-09-02T09:47:03;24.30;64.10
65036;DHT22;51603;49.300;8.880;2022-09-02T09:49:31;24.50;61.90
65036;DHT22;51603;49.300;8.880;2022-09-02T09:51:57;24.60;60.20
65036;DHT22;51603;49.300;8.880;2022-09-02T09:54:25;24.70;59.50
65036;DHT22;51603;49.300;8.880;2022-09-02T09:56:51;24.70;57.80
65036;DHT22;51603;49.300;8.880;2022-09-02T09:59:40;24.50;59.40
65036;DHT22;51603;49.300;8.880;2022-09-02T10:02:27;24.60;57.60
65036;DHT22;51603;49.300;8.880;2022-09-02T10:05:06;24.70;57.40
65036;DHT22;51603;49.300;8.880;2022-09-02T10:07:41;24.70;57.20
65036;DHT22;51603;49.300;8.880;2022-09-02T10:10:16;24.70;57.30
65036;DHT22;51603;49.300;8.880;2022-09-02T10:12:44;24.90;56.70
65036;DHT22;51603;49.300;8.880;2022-09-02T10:15:10;25.10;53.90
65036;DHT22;51603;49.300;8.880;2022-09-02T10:17:50;25.00;54.60
65036;DHT22;51603;49.300;8.880;2022-09-02T10:23:20;25.00;51.20
65036;DHT22;51603;49.300;8.880;2022-09-02T10:26:06;24.80;50.20
65036;DHT22;51603;49.300;8.880;2022-09-02T10:34:45;25.00;47.90
65036;DHT22;51603;49.300;8.880;2022-09-02T10:37:25;25.20;46.50
65036;DHT22;51603;49.300;8.880;2022-09-02T10:40:23;25.20;47.10
65036;DHT22;51603;49.300;8.880;2022-09-02T10:43:03;25.60;47.80
65036;DHT22;51603;49.300;8.880;2022-09-02T10:56:39;25.80;44.90
65036;DHT22;51603;49.300;8.880;2022-09-02T10:59:12;26.10;44.50
65036;DHT22;51603;49.300;8.880;2022-09-02T11:07:57;26.10;44.60
65036;DHT22;51603;49.300;8.880;2022-09-02T11:10:28;26.10;43.40
65036;DHT22;51603;49.300;8.880;2022-09-02T11:13:10;26.00;44.40
65036;DHT22;51603;49.300;8.880;2022-09-02T11:15:55;26.10;43.50
65036;DHT22;51603;49.300;8.880;2022-09-02T11:22:00;26.50;42.80
65036;DHT22;51603;49.300;8.880;2022-09-02T11:24:43;26.80;41.70
65036;DHT22;51603;49.300;8.880;2022-09-02T11:27:38;26.80;41.90
65036;DHT22;51603;49.300;8.880;2022-09-02T11:32:51;26.80;41.70
65036;DHT22;51603;49.300;8.880;2022-09-02T11:35:22;26.80;42.50
65036;DHT22;51603;49.300;8.880;2022-09-02T11:37:58;26.60;41.90
65036;DHT22;51603;49.300;8.880;2022-09-02T11:40:29;26.60;41.90
65036;DHT22;51603;49.300;8.880;2022-09-02T11:43:05;27.00;42.60
65036;DHT22;51603;49.300;8.880;2022-09-02T11:53:51;27.50;39.40
65036;DHT22;51603;49.300;8.880;2022-09-02T11:56:21;27.70;38.90
65036;DHT22;51603;49.300;8.880;2022-09-02T11:58:50;27.10;37.20
65036;DHT22;51603;49.300;8.880;2022-09-02T12:01:36;27.00;37.90
65036;DHT22;51603;49.300;8.880;2022-09-02T12:06:37;27.20;38.40
65036;DHT22;51603;49.300;8.880;2022-09-02T12:09:44;27.30;37.80
65036;DHT22;51603;49.300;8.880;2022-09-02T12:17:34;27.50;37.50
65036;DHT22;51603;49.300;8.880;2022-09-02T12:20:05;27.30;37.40
65036;DHT22;51603;49.300;8.880;2022-09-02T12:22:34;27.40;36.50
65036;DHT22;51603;49.300;8.880;2022-09-02T12:25:51;27.10;37.50
65036;DHT22;51603;49.300;8.880;2022-09-02T12:27:49;27.40;36.80
65036;DHT22;51603;49.300;8.880;2022-09-02T12:33:29;27.00;39.60
65036;DHT22;51603;49.300;8.880;2022-09-02T12:35:56;27.30;38.10
65036;DHT22;51603;49.300;8.880;2022-09-02T12:41:05;27.20;36.60
65036;DHT22;51603;49.300;8.880;2022-09-02T12:43:45;27.40;36.50
65036;DHT22;51603;49.300;8.880;2022-09-02T12:48:58;27.90;36.00
65036;DHT22;51603;49.300;8.880;2022-09-02T12:56:56;27.80;35.90
65036;DHT22;51603;49.300;8.880;2022-09-02T12:59:31;27.80;35.30
65036;DHT22;51603;49.300;8.880;2022-09-02T13:02:24;27.80;35.70
65036;DHT22;51603;49.300;8.880;2022-09-02T13:05:11;28.00;35.80
65036;DHT22;51603;49.300;8.880;2022-09-02T13:25:36;28.70;36.40
65036;DHT22;51603;49.300;8.880;2022-09-02T13:33:46;29.00;33.60
65036;DHT22;51603;49.300;8.880;2022-09-02T13:36:22;28.70;33.40
65036;DHT22;51603;49.300;8.880;2022-09-02T13:38:48;28.90;34.10
65036;DHT22;51603;49.300;8.880;2022-09-02T13:41:30;29.10;32.80
65036;DHT22;51603;49.300;8.880;2022-09-02T13:44:10;29.00;31.90
65036;DHT22;51603;49.300;8.880;2022-09-02T13:46:47;28.80;32.70
65036;DHT22;51603;49.300;8.880;2022-09-02T13:49:22;28.60;32.90
65036;DHT22;51603;49.300;8.880;2022-09-02T13:51:51;28.80;33.60
65036;DHT22;51603;49.300;8.880;2022-09-02T13:54:30;28.70;32.60
65036;DHT22;51603;49.300;8.880;2022-09-02T13:56:59;28.80;33.30
65036;DHT22;51603;49.300;8.880;2022-09-02T13:59:36;29.10;32.20
65036;DHT22;51603;49.300;8.880;2022-09-02T14:02:27;28.90;31.70
65036;DHT22;51603;49.300;8.880;2022-09-02T14:05:02;28.90;32.10
65036;DHT22;51603;49.300;8.880;2022-09-02T14:07:38;29.10;31.40
65036;DHT22;51603;49.300;8.880;2022-09-02T14:10:08;29.00;31.90
65036;DHT22;51603;49.300;8.880;2022-09-02T14:12:36;29.30;31.40
65036;DHT22;51603;49.300;8.880;2022-09-02T14:15:04;29.50;31.20
65036;DHT22;51603;49.300;8.880;2022-09-02T14:17:31;29.50;32.10
65036;DHT22;51603;49.300;8.880;2022-09-02T14:20:09;29.30;31.20
65036;DHT22;51603;49.300;8.880;2022-09-02T14:22:35;29.00;32.20
65036;DHT22;51603;49.300;8.880;2022-09-02T14:25:13;29.10;31.70
65036;DHT22;51603;49.300;8.880;2022-09-02T14:27:39;29.30;31.90
65036;DHT22;51603;49.300;8.880;2022-09-02T14:30:32;29.40;32.00
65036;DHT22;51603;49.300;8.880;2022-09-02T14:33:19;29.40;31.50
65036;DHT22;51603;49.300;8.880;2022-09-02T14:35:55;29.20;31.90
65036;DHT22;51603;49.300;8.880;2022-09-02T14:38:25;29.30;31.40
65036;DHT22;51603;49.300;8.880;2022-09-02T14:41:22;29.00;31.20
65036;DHT22;51603;49.300;8.880;2022-09-02T14:43:46;29.00;32.70
65036;DHT22;51603;49.300;8.880;2022-09-02T14:46:47;29.00;32.30
65036;DHT22;51603;49.300;8.880;2022-09-02T14:49:22;29.10;30.90
65036;DHT22;51603;49.300;8.880;2022-09-02T14:51:57;28.90;31.70
65036;DHT22;51603;49.300;8.880;2022-09-02T14:54:45;28.90;31.60
65036;DHT22;51603;49.300;8.880;2022-09-02T14:57:29;29.00;32.30
65036;DHT22;51603;49.300;8.880;2022-09-02T14:59:57;29.00;31.60
65036;DHT22;51603;49.300;8.880;2022-09-02T15:04:56;28.90;31.20
65036;DHT22;51603;49.300;8.880;2022-09-02T15:07:23;29.00;31.70
65036;DHT22;51603;49.300;8.880;2022-09-02T15:09:49;29.00;31.40
65036;DHT22;51603;49.300;8.880;2022-09-02T15:12:36;29.00;31.60
65036;DHT22;51603;49.300;8.880;2022-09-02T15:15:04;29.10;31.80
65036;DHT22;51603;49.300;8.880;2022-09-02T15:17:30;29.00;30.80
65036;DHT22;51603;49.300;8.880;2022-09-02T15:19:56;28.80;31.50
65036;DHT22;51603;49.300;8.880;2022-09-02T15:22:21;28.80;31.80
65036;DHT22;51603;49.300;8.880;2022-09-02T15:24:47;29.00;31.50
65036;DHT22;51603;49.300;8.880;2022-09-02T15:27:14;28.80;31.40
65036;DHT22;51603;49.300;8.880;2022-09-02T15:29:40;28.90;31.50
65036;DHT22;51603;49.300;8.880;2022-09-02T15:32:06;28.90;31.70
65036;DHT22;51603;49.300;8.880;2022-09-02T15:34:32;28.90;30.50
65036;DHT22;51603;49.300;8.880;2022-09-02T15:36:59;28.70;31.10
65036;DHT22;51603;49.300;8.880;2022-09-02T15:39:25;28.70;32.40
65036;DHT22;51603;49.300;8.880;2022-09-02T15:41:51;28.80;31.60
65036;DHT22;51603;49.300;8.880;2022-09-02T15:44:18;28.80;32.00
65036;DHT22;51603;49.300;8.880;2022-09-02T15:46:44;28.80;31.90
65036;DHT22;51603;49.300;8.880;2022-09-02T15:49:12;28.80;31.80
65036;DHT22;51603;49.300;8.880;2022-09-02T15:51:38;28.80;31.20
65036;DHT22;51603;49.300;8.880;2022-09-02T15:54:10;28.70;31.00
65036;DHT22;51603;49.300;8.880;2022-09-02T15:56:37;28.60;31.00
65036;DHT22;51603;49.300;8.880;2022-09-02T15:59:06;28.60;31.70
65036;DHT22;51603;49.300;8.880;2022-09-02T16:01:35;28.70;31.80
65036;DHT22;51603;49.300;8.880;2022-09-02T16:04:03;28.70;31.20
65036;DHT22;51603;49.300;8.880;2022-09-02T16:06:30;28.60;32.10
65036;DHT22;51603;49.300;8.880;2022-09-02T16:08:56;28.60;32.40
65036;DHT22;51603;49.300;8.880;2022-09-02T16:11:23;28.40;31.90
65036;DHT22;51603;49.300;8.880;2022-09-02T16:13:50;28.30;32.60
65036;DHT22;51603;49.300;8.880;2022-09-02T16:16:16;28.20;32.50
65036;DHT22;51603;49.300;8.880;2022-09-02T16:18:43;28.00;32.80
65036;DHT22;51603;49.300;8.880;2022-09-02T16:21:11;28.20;33.40
65036;DHT22;51603;49.300;8.880;2022-09-02T16:23:37;28.20;32.80
65036;DHT22;51603;49.300;8.880;2022-09-02T16:28:41;28.10;33.20
65036;DHT22;51603;49.300;8.880;2022-09-02T16:31:08;28.10;33.20
65036;DHT22;51603;49.300;8.880;2022-09-02T16:33:35;28.00;32.90
65036;DHT22;51603;49.300;8.880;2022-09-02T16:36:01;27.90;33.00
65036;DHT22;51603;49.300;8.880;2022-09-02T16:38:27;27.80;32.80
65036;DHT22;51603;49.300;8.880;2022-09-02T16:40:54;27.70;33.20
65036;DHT22;51603;49.300;8.880;2022-09-02T16:43:21;27.40;33.10
65036;DHT22;51603;49.300;8.880;2022-09-02T16:45:50;27.00;33.70
65036;DHT22;51603;49.300;8.880;2022-09-02T16:48:20;26.80;34.20
65036;DHT22;51603;49.300;8.880;2022-09-02T16:50:46;26.60;34.90
65036;DHT22;51603;49.300;8.880;2022-09-02T16:53:12;26.30;34.90
65036;DHT22;51603;49.300;8.880;2022-09-02T16:55:45;26.10;35.70
65036;DHT22;51603;49.300;8.880;2022-09-02T16:58:11;25.90;36.00
65036;DHT22;51603;49.300;8.880;2022-09-02T17:00:39;25.70;36.10
65036;DHT22;51603;49.300;8.880;2022-09-02T17:03:06;25.60;36.30
65036;DHT22;51603;49.300;8.880;2022-09-02T17:05:32;25.30;36.50
65036;DHT22;51603;49.300;8.880;2022-09-02T17:07:57;25.20;36.80
65036;DHT22;51603;49.300;8.880;2022-09-02T17:10:26;25.10;36.90
65036;DHT22;51603;49.300;8.880;2022-09-02T17:12:53;24.90;36.90
65036;DHT22;51603;49.300;8.880;2022-09-02T17:15:19;24.80;37.90
65036;DHT22;51603;49.300;8.880;2022-09-02T17:17:44;24.70;37.90
65036;DHT22;51603;49.300;8.880;2022-09-02T17:20:11;24.50;38.40
65036;DHT22;51603;49.300;8.880;2022-09-02T17:22:38;24.50;39.00
65036;DHT22;51603;49.300;8.880;2022-09-02T17:25:04;24.40;38.90
65036;DHT22;51603;49.300;8.880;2022-09-02T17:27:32;24.30;39.00